sensor_id;sensor_type;location;lat;lon;timestamp;temperature;humidity
23715;DHT22;12036;50.858;4.472;2023-08-08T00:00:18;14.80;99.90
23715;DHT22;12036;50.858;4.472;2023-08-08T00:02:44;14.70;99.90
23715;DHT22;12036;50.858;4.472;2023-08-08T00:05:09;14.70;99.90
23715;DHT22;12036;50.858;4.472;2023-08-08T00:07:35;14.70;99.90
23715;DHT22;12036;50.858;4.472;2023-08-08T00:10:01;14.60;99.90
23715;DHT22;12036;50.858;4.472;2023-08-08T00:12:26;14.70;99.90
23715;DHT22;12036;50.858;4.472;2023-08-08T00:14:52;14.60;99.90
23715;DHT22;12036;50.858;4.472;2023-08-08T00:17:18;14.60;99.90
23715;DHT22;12036;50.858;4.472;2023-08-08T00:19:43;14.50;99.90
23715;DHT22;12036;50.858;4.472;2023-08-08T00:22:09;14.50;99.90
23715;DHT22;12036;50.858;4.472;2023-08-08T00:24:34;14.50;99.90
23715;DHT22;12036;50.858;4.472;2023-08-08T00:27:00;14.50;99.90
23715;DHT22;12036;50.858;4.472;2023-08-08T00:29:26;14.40;99.90
23715;DHT22;12036;50.858;4.472;2023-08-08T00:31:51;14.40;99.90
23715;DHT22;12036;50.858;4.472;2023-08-08T00:34:17;14.40;99.90
23715;DHT22;12036;50.858;4.472;2023-08-08T00:36:43;14.40;99.90
23715;DHT22;12036;50.858;4.472;2023-08-08T00:39:08;14.40;99.90
23715;DHT22;12036;50.858;4.472;2023-08-08T00:41:34;14.30;99.90
23715;DHT22;12036;50.858;4.472;2023-08-08T00:43:59;14.30;99.90
23715;DHT22;12036;50.858;4.472;2023-08-08T00:46:25;14.30;99.90
23715;DHT22;12036;50.858;4.472;2023-08-08T00:48:52;14.30;99.90
23715;DHT22;12036;50.858;4.472;2023-08-08T00:51:18;14.30;99.90
23715;DHT22;12036;50.858;4.472;2023-08-08T00:53:44;14.20;99.90
23715;DHT22;12036;50.858;4.472;2023-08-08T00:56:12;14.30;99.90
23715;DHT22;12036;50.858;4.472;2023-08-08T00:58:39;14.30;99.90
23715;DHT22;12036;50.858;4.472;2023-08-08T01:01:05;14.30;99.90
23715;DHT22;12036;50.858;4.472;2023-08-08T01:03:30;14.20;99.90
23715;DHT22;12036;50.858;4.472;2023-08-08T01:09:21;14.30;99.90
23715;DHT22;12036;50.858;4.472;2023-08-08T01:11:49;14.20;99.90
23715;DHT22;12036;50.858;4.472;2023-08-08T01:14:17;14.20;99.90
23715;DHT22;12036;50.858;4.472;2023-08-08T01:16:44;14.20;99.90
23715;DHT22;12036;50.858;4.472;2023-08-08T01:19:15;14.20;99.90
23715;DHT22;12036;50.858;4.472;2023-08-08T01:21:47;14.20;99.90
23715;DHT22;12036;50.858;4.472;2023-08-08T01:26:45;14.20;99.90
23715;DHT22;12036;50.858;4.472;2023-08-08T01:29:11;14.20;99.90
23715;DHT22;12036;50.858;4.472;2023-08-08T01:31:37;14.20;99.90
23715;DHT22;12036;50.858;4.472;2023-08-08T01:34:02;14.20;99.90
23715;DHT22;12036;50.858;4.472;2023-08-08T01:36:38;14.20;99.90
23715;DHT22;12036;50.858;4.472;2023-08-08T01:39:09;14.20;99.90
23715;DHT22;12036;50.858;4.472;2023-08-08T01:41:39;14.20;99.90
23715;DHT22;12036;50.858;4.472;2023-08-08T01:44:07;14.20;99.90
23715;DHT22;12036;50.858;4.472;2023-08-08T01:46:33;14.10;99.90
23715;DHT22;12036;50.858;4.472;2023-08-08T01:48:59;14.10;99.90
23715;DHT22;12036;50.858;4.472;2023-08-08T01:51:26;14.10;99.90
23715;DHT22;12036;50.858;4.472;2023-08-08T01:53:53;14.10;99.90
23715;DHT22;12036;50.858;4.472;2023-08-08T01:56:18;14.10;99.90
23715;DHT22;12036;50.858;4.472;2023-08-08T01:58:44;14.10;99.90
23715;DHT22;12036;50.858;4.472;2023-08-08T02:01:10;14.10;99.90
23715;DHT22;12036;50.858;4.472;2023-08-08T02:03:35;14.10;99.90
23715;DHT22;12036;50.858;4.472;2023-08-08T02:06:01;14.10;99.90
23715;DHT22;12036;50.858;4.472;2023-08-08T02:08:26;14.00;99.90
23715;DHT22;12036;50.858;4.472;2023-08-08T02:10:52;14.10;99.90
23715;DHT22;12036;50.858;4.472;2023-08-08T02:13:18;14.10;99.90
23715;DHT22;12036;50.858;4.472;2023-08-08T02:15:43;14.10;99.90
23715;DHT22;12036;50.858;4.472;2023-08-08T02:18:09;14.10;99.90
23715;DHT22;12036;50.858;4.472;2023-08-08T02:20:36;14.10;99.90
23715;DHT22;12036;50.858;4.472;2023-08-08T02:23:02;14.10;99.90
23715;DHT22;12036;50.858;4.472;2023-08-08T02:25:28;14.10;99.90
23715;DHT22;12036;50.858;4.472;2023-08-08T02:27:53;14.00;99.90
23715;DHT22;12036;50.858;4.472;2023-08-08T02:30:19;14.10;99.90
23715;DHT22;12036;50.858;4.472;2023-08-08T02:32:45;14.00;99.90
23715;DHT22;12036;50.858;4.472;2023-08-08T02:35:11;14.00;99.90
23715;DHT22;12036;50.858;4.472;2023-08-08T02:37:37;14.00;99.90
23715;DHT22;12036;50.858;4.472;2023-08-08T02:40:03;14.00;99.90
23715;DHT22;12036;50.858;4.472;2023-08-08T02:42:29;14.00;99.90
23715;DHT22;12036;50.858;4.472;2023-08-08T02:44:54;13.90;99.90
23715;DHT22;12036;50.858;4.472;2023-08-08T02:47:20;13.90;99.90
23715;DHT22;12036;50.858;4.472;2023-08-08T02:49:46;13.90;99.90
23715;DHT22;12036;50.858;4.472;2023-08-08T02:52:11;13.90;99.90
23715;DHT22;12036;50.858;4.472;2023-08-08T02:54:37;13.90;99.90
23715;DHT22;12036;50.858;4.472;2023-08-08T02:57:03;13.90;99.90
23715;DHT22;12036;50.858;4.472;2023-08-08T02:59:29;13.90;99.90
23715;DHT22;12036;50.858;4.472;2023-08-08T03:01:54;13.80;99.90
23715;DHT22;12036;50.858;4.472;2023-08-08T03:04:20;13.80;99.90
23715;DHT22;12036;50.858;4.472;2023-08-08T03:06:46;13.80;99.90
23715;DHT22;12036;50.858;4.472;2023-08-08T03:09:11;13.80;99.90
23715;DHT22;12036;50.858;4.472;2023-08-08T03:11:37;13.80;99.90
23715;DHT22;12036;50.858;4.472;2023-08-08T03:14:03;13.80;99.90
23715;DHT22;12036;50.858;4.472;2023-08-08T03:16:28;13.80;99.90
23715;DHT22;12036;50.858;4.472;2023-08-08T03:18:54;13.80;99.90
23715;DHT22;12036;50.858;4.472;2023-08-08T03:21:20;13.80;99.90
23715;DHT22;12036;50.858;4.472;2023-08-08T03:23:45;13.70;99.90
23715;DHT22;12036;50.858;4.472;2023-08-08T03:26:11;13.60;99.90
23715;DHT22;12036;50.858;4.472;2023-08-08T03:28:37;13.70;99.90
23715;DHT22;12036;50.858;4.472;2023-08-08T03:31:02;13.70;99.90
23715;DHT22;12036;50.858;4.472;2023-08-08T03:33:28;13.60;99.90
23715;DHT22;12036;50.858;4.472;2023-08-08T03:35:54;13.60;99.90
23715;DHT22;12036;50.858;4.472;2023-08-08T03:38:20;13.60;99.90
23715;DHT22;12036;50.858;4.472;2023-08-08T03:40:45;13.70;99.90
23715;DHT22;12036;50.858;4.472;2023-08-08T03:43:11;13.60;99.90
23715;DHT22;12036;50.858;4.472;2023-08-08T03:45:36;13.60;99.90
23715;DHT22;12036;50.858;4.472;2023-08-08T03:48:02;13.60;99.90
23715;DHT22;12036;50.858;4.472;2023-08-08T03:50:28;13.60;99.90
23715;DHT22;12036;50.858;4.472;2023-08-08T03:52:53;13.70;99.90
23715;DHT22;12036;50.858;4.472;2023-08-08T03:55:19;13.60;99.90
23715;DHT22;12036;50.858;4.472;2023-08-08T03:57:45;13.60;99.90
23715;DHT22;12036;50.858;4.472;2023-08-08T04:00:10;13.60;99.90
23715;DHT22;12036;50.858;4.472;2023-08-08T04:02:37;13.60;99.90
23715;DHT22;12036;50.858;4.472;2023-08-08T04:05:02;13.70;99.90
23715;DHT22;12036;50.858;4.472;2023-08-08T04:07:28;13.60;99.90
23715;DHT22;12036;50.858;4.472;2023-08-08T04:09:54;13.70;99.90
23715;DHT22;12036;50.858;4.472;2023-08-08T04:12:19;13.70;99.90
23715;DHT22;12036;50.858;4.472;2023-08-08T04:14:45;13.60;99.90
23715;DHT22;12036;50.858;4.472;2023-08-08T04:17:10;13.70;99.90
23715;DHT22;12036;50.858;4.472;2023-08-08T04:19:36;13.70;99.90
23715;DHT22;12036;50.858;4.472;2023-08-08T04:22:02;13.60;99.90
23715;DHT22;12036;50.858;4.472;2023-08-08T04:24:27;13.60;99.90
23715;DHT22;12036;50.858;4.472;2023-08-08T04:26:53;13.60;99.90
23715;DHT22;12036;50.858;4.472;2023-08-08T04:29:19;13.60;99.90
23715;DHT22;12036;50.858;4.472;2023-08-08T04:31:44;13.60;99.90
23715;DHT22;12036;50.858;4.472;2023-08-08T04:34:10;13.60;99.90
23715;DHT22;12036;50.858;4.472;2023-08-08T04:36:35;13.60;99.90
23715;DHT22;12036;50.858;4.472;2023-08-08T04:39:01;13.70;99.90
23715;DHT22;12036;50.858;4.472;2023-08-08T04:41:27;13.70;99.90
23715;DHT22;12036;50.858;4.472;2023-08-08T04:43:52;13.70;99.90
23715;DHT22;12036;50.858;4.472;2023-08-08T04:46:18;13.70;99.90
23715;DHT22;12036;50.858;4.472;2023-08-08T04:48:44;13.80;99.90
23715;DHT22;12036;50.858;4.472;2023-08-08T04:51:09;13.80;99.90
23715;DHT22;12036;50.858;4.472;2023-08-08T04:53:35;13.90;99.90
23715;DHT22;12036;50.858;4.472;2023-08-08T04:56:01;13.90;99.90
23715;DHT22;12036;50.858;4.472;2023-08-08T04:58:26;14.00;99.90
23715;DHT22;12036;50.858;4.472;2023-08-08T05:00:52;14.00;99.90
23715;DHT22;12036;50.858;4.472;2023-08-08T05:03:18;14.00;99.90
23715;DHT22;12036;50.858;4.472;2023-08-08T05:05:43;14.10;99.90
23715;DHT22;12036;50.858;4.472;2023-08-08T05:08:13;14.10;99.90
23715;DHT22;12036;50.858;4.472;2023-08-08T05:10:38;14.10;99.90
23715;DHT22;12036;50.858;4.472;2023-08-08T05:13:04;14.20;99.90
23715;DHT22;12036;50.858;4.472;2023-08-08T05:15:30;14.20;99.90
23715;DHT22;12036;50.858;4.472;2023-08-08T05:17:55;14.30;99.90
23715;DHT22;12036;50.858;4.472;2023-08-08T05:20:21;14.30;99.90
23715;DHT22;12036;50.858;4.472;2023-08-08T05:22:47;14.40;99.90
23715;DHT22;12036;50.858;4.472;2023-08-08T05:25:13;14.40;99.90
23715;DHT22;12036;50.858;4.472;2023-08-08T05:27:39;14.50;99.90
23715;DHT22;12036;50.858;4.472;2023-08-08T05:30:05;14.60;99.90
23715;DHT22;12036;50.858;4.472;2023-08-08T05:32:31;14.60;99.90
23715;DHT22;12036;50.858;4.472;2023-08-08T05:34:57;14.60;99.90
23715;DHT22;12036;50.858;4.472;2023-08-08T05:37:26;14.60;99.90
23715;DHT22;12036;50.858;4.472;2023-08-08T05:39:53;14.70;99.90
23715;DHT22;12036;50.858;4.472;2023-08-08T05:42:19;14.80;99.90
23715;DHT22;12036;50.858;4.472;2023-08-08T05:44:44;14.80;99.90
23715;DHT22;12036;50.858;4.472;2023-08-08T05:47:10;14.90;99.90
23715;DHT22;12036;50.858;4.472;2023-08-08T05:49:37;15.00;99.90
23715;DHT22;12036;50.858;4.472;2023-08-08T05:52:03;15.00;99.90
23715;DHT22;12036;50.858;4.472;2023-08-08T05:54:29;15.00;99.90
23715;DHT22;12036;50.858;4.472;2023-08-08T05:56:55;15.20;99.90
23715;DHT22;12036;50.858;4.472;2023-08-08T05:59:20;15.20;99.90
23715;DHT22;12036;50.858;4.472;2023-08-08T06:01:46;15.30;99.90
23715;DHT22;12036;50.858;4.472;2023-08-08T06:04:12;15.10;99.90
23715;DHT22;12036;50.858;4.472;2023-08-08T06:06:39;15.10;99.90
23715;DHT22;12036;50.858;4.472;2023-08-08T06:09:05;15.10;99.90
23715;DHT22;12036;50.858;4.472;2023-08-08T06:11:30;15.20;99.90
23715;DHT22;12036;50.858;4.472;2023-08-08T06:13:56;15.30;99.90
23715;DHT22;12036;50.858;4.472;2023-08-08T06:16:22;15.40;99.90
23715;DHT22;12036;50.858;4.472;2023-08-08T06:18:47;15.50;99.90
23715;DHT22;12036;50.858;4.472;2023-08-08T06:21:13;15.50;99.90
23715;DHT22;12036;50.858;4.472;2023-08-08T06:23:39;15.90;99.90
23715;DHT22;12036;50.858;4.472;2023-08-08T06:26:05;16.70;99.90
23715;DHT22;12036;50.858;4.472;2023-08-08T06:28:30;16.90;99.90
23715;DHT22;12036;50.858;4.472;2023-08-08T06:30:58;16.90;99.90
23715;DHT22;12036;50.858;4.472;2023-08-08T06:33:23;16.90;99.90
23715;DHT22;12036;50.858;4.472;2023-08-08T06:35:49;17.00;99.90
23715;DHT22;12036;50.858;4.472;2023-08-08T06:38:15;17.00;99.90
23715;DHT22;12036;50.858;4.472;2023-08-08T06:40:40;17.00;99.90
23715;DHT22;12036;50.858;4.472;2023-08-08T06:43:06;17.20;99.90
23715;DHT22;12036;50.858;4.472;2023-08-08T06:45:32;17.40;99.90
23715;DHT22;12036;50.858;4.472;2023-08-08T06:47:57;17.70;99.90
23715;DHT22;12036;50.858;4.472;2023-08-08T06:50:23;17.80;99.90
23715;DHT22;12036;50.858;4.472;2023-08-08T06:52:51;17.60;99.90
23715;DHT22;12036;50.858;4.472;2023-08-08T06:55:17;17.40;99.90
23715;DHT22;12036;50.858;4.472;2023-08-08T06:57:43;17.40;99.90
23715;DHT22;12036;50.858;4.472;2023-08-08T07:00:09;17.30;99.90
23715;DHT22;12036;50.858;4.472;2023-08-08T07:02:37;17.30;99.90
23715;DHT22;12036;50.858;4.472;2023-08-08T07:05:03;17.20;99.90
23715;DHT22;12036;50.858;4.472;2023-08-08T07:07:29;17.20;99.90
23715;DHT22;12036;50.858;4.472;2023-08-08T07:09:56;17.20;99.90
23715;DHT22;12036;50.858;4.472;2023-08-08T07:12:22;17.50;99.90
23715;DHT22;12036;50.858;4.472;2023-08-08T07:14:47;17.60;99.90
23715;DHT22;12036;50.858;4.472;2023-08-08T07:17:13;17.70;99.90
23715;DHT22;12036;50.858;4.472;2023-08-08T07:19:38;17.50;99.90
23715;DHT22;12036;50.858;4.472;2023-08-08T07:22:04;17.60;99.90
23715;DHT22;12036;50.858;4.472;2023-08-08T07:24:30;17.50;99.90
23715;DHT22;12036;50.858;4.472;2023-08-08T07:26:57;17.60;99.90
23715;DHT22;12036;50.858;4.472;2023-08-08T07:29:23;17.50;99.90
23715;DHT22;12036;50.858;4.472;2023-08-08T07:31:48;17.50;99.90
23715;DHT22;12036;50.858;4.472;2023-08-08T07:34:14;17.60;99.90
23715;DHT22;12036;50.858;4.472;2023-08-08T07:36:40;17.60;99.90
23715;DHT22;12036;50.858;4.472;2023-08-08T07:39:06;17.70;99.90
23715;DHT22;12036;50.858;4.472;2023-08-08T07:41:31;17.60;99.90
23715;DHT22;12036;50.858;4.472;2023-08-08T07:43:57;17.60;99.90
23715;DHT22;12036;50.858;4.472;2023-08-08T07:46:23;17.50;99.90
23715;DHT22;12036;50.858;4.472;2023-08-08T07:48:48;17.70;99.90
23715;DHT22;12036;50.858;4.472;2023-08-08T07:51:14;17.70;99.90
23715;DHT22;12036;50.858;4.472;2023-08-08T07:53:40;17.70;99.90
23715;DHT22;12036;50.858;4.472;2023-08-08T07:56:05;17.60;99.90
23715;DHT22;12036;50.858;4.472;2023-08-08T07:58:32;17.70;99.90
23715;DHT22;12036;50.858;4.472;2023-08-08T08:00:58;17.70;99.90
23715;DHT22;12036;50.858;4.472;2023-08-08T08:03:26;17.80;99.90
23715;DHT22;12036;50.858;4.472;2023-08-08T08:05:55;17.80;99.90
23715;DHT22;12036;50.858;4.472;2023-08-08T08:08:20;17.90;99.90
23715;DHT22;12036;50.858;4.472;2023-08-08T08:10:47;18.00;99.90
23715;DHT22;12036;50.858;4.472;2023-08-08T08:13:14;18.00;99.90
23715;DHT22;12036;50.858;4.472;2023-08-08T08:15:39;18.20;99.90
23715;DHT22;12036;50.858;4.472;2023-08-08T08:18:05;18.10;99.90
23715;DHT22;12036;50.858;4.472;2023-08-08T08:20:31;18.20;99.90
23715;DHT22;12036;50.858;4.472;2023-08-08T08:22:56;18.20;99.90
23715;DHT22;12036;50.858;4.472;2023-08-08T08:25:22;18.20;99.90
23715;DHT22;12036;50.858;4.472;2023-08-08T08:27:48;18.20;99.90
23715;DHT22;12036;50.858;4.472;2023-08-08T08:30:13;18.20;99.90
23715;DHT22;12036;50.858;4.472;2023-08-08T08:32:40;18.10;99.90
23715;DHT22;12036;50.858;4.472;2023-08-08T08:35:07;18.00;99.90
23715;DHT22;12036;50.858;4.472;2023-08-08T08:37:33;17.90;99.90
23715;DHT22;12036;50.858;4.472;2023-08-08T08:39:59;18.10;99.90
23715;DHT22;12036;50.858;4.472;2023-08-08T08:42:26;18.20;99.90
23715;DHT22;12036;50.858;4.472;2023-08-08T08:44:58;18.10;99.90
23715;DHT22;12036;50.858;4.472;2023-08-08T08:47:24;18.20;99.90
23715;DHT22;12036;50.858;4.472;2023-08-08T08:49:52;18.20;99.90
23715;DHT22;12036;50.858;4.472;2023-08-08T08:52:18;18.20;99.90
23715;DHT22;12036;50.858;4.472;2023-08-08T08:54:44;18.20;99.90
23715;DHT22;12036;50.858;4.472;2023-08-08T08:57:11;18.20;99.90
23715;DHT22;12036;50.858;4.472;2023-08-08T08:59:37;18.20;99.90
23715;DHT22;12036;50.858;4.472;2023-08-08T09:02:02;18.40;99.90
23715;DHT22;12036;50.858;4.472;2023-08-08T09:04:29;18.50;99.90
23715;DHT22;12036;50.858;4.472;2023-08-08T09:06:55;18.70;99.90
23715;DHT22;12036;50.858;4.472;2023-08-08T09:09:21;18.90;99.90
23715;DHT22;12036;50.858;4.472;2023-08-08T09:11:49;19.20;99.90
23715;DHT22;12036;50.858;4.472;2023-08-08T09:14:20;19.20;99.90
23715;DHT22;12036;50.858;4.472;2023-08-08T09:16:47;19.30;99.90
23715;DHT22;12036;50.858;4.472;2023-08-08T09:19:16;19.50;99.90
23715;DHT22;12036;50.858;4.472;2023-08-08T09:21:43;19.70;99.90
23715;DHT22;12036;50.858;4.472;2023-08-08T09:24:09;19.70;99.90
23715;DHT22;12036;50.858;4.472;2023-08-08T09:26:35;19.70;99.90
23715;DHT22;12036;50.858;4.472;2023-08-08T09:29:02;19.80;99.90
23715;DHT22;12036;50.858;4.472;2023-08-08T09:31:28;19.90;99.90
23715;DHT22;12036;50.858;4.472;2023-08-08T09:33:58;20.00;99.90
23715;DHT22;12036;50.858;4.472;2023-08-08T09:36:24;20.10;99.90
23715;DHT22;12036;50.858;4.472;2023-08-08T09:38:51;20.40;99.90
23715;DHT22;12036;50.858;4.472;2023-08-08T09:41:17;20.20;99.90
23715;DHT22;12036;50.858;4.472;2023-08-08T09:43:44;20.50;99.90
23715;DHT22;12036;50.858;4.472;2023-08-08T09:46:10;20.70;99.90
23715;DHT22;12036;50.858;4.472;2023-08-08T09:48:39;20.80;99.90
23715;DHT22;12036;50.858;4.472;2023-08-08T09:51:06;20.80;99.90
23715;DHT22;12036;50.858;4.472;2023-08-08T09:53:33;20.90;99.90
23715;DHT22;12036;50.858;4.472;2023-08-08T09:56:01;21.10;99.90
23715;DHT22;12036;50.858;4.472;2023-08-08T09:58:29;21.20;99.90
23715;DHT22;12036;50.858;4.472;2023-08-08T10:00:54;21.00;99.90
23715;DHT22;12036;50.858;4.472;2023-08-08T10:03:20;20.70;99.90
23715;DHT22;12036;50.858;4.472;2023-08-08T10:05:46;20.60;99.90
23715;DHT22;12036;50.858;4.472;2023-08-08T10:08:15;20.60;99.90
23715;DHT22;12036;50.858;4.472;2023-08-08T10:10:42;20.60;99.90
23715;DHT22;12036;50.858;4.472;2023-08-08T10:13:10;20.70;99.90
23715;DHT22;12036;50.858;4.472;2023-08-08T10:15:44;20.70;99.90
23715;DHT22;12036;50.858;4.472;2023-08-08T10:18:09;20.40;99.90
23715;DHT22;12036;50.858;4.472;2023-08-08T10:20:36;19.90;99.90
23715;DHT22;12036;50.858;4.472;2023-08-08T10:23:03;19.70;99.90
23715;DHT22;12036;50.858;4.472;2023-08-08T10:25:30;19.60;99.90
23715;DHT22;12036;50.858;4.472;2023-08-08T10:28:10;19.50;99.90
23715;DHT22;12036;50.858;4.472;2023-08-08T10:30:52;19.30;99.90
23715;DHT22;12036;50.858;4.472;2023-08-08T10:33:20;19.30;99.90
23715;DHT22;12036;50.858;4.472;2023-08-08T10:38:38;19.10;99.90
23715;DHT22;12036;50.858;4.472;2023-08-08T10:41:05;19.10;99.90
23715;DHT22;12036;50.858;4.472;2023-08-08T10:43:31;19.20;99.90
23715;DHT22;12036;50.858;4.472;2023-08-08T10:45:58;19.00;99.90
23715;DHT22;12036;50.858;4.472;2023-08-08T10:48:25;19.00;99.90
23715;DHT22;12036;50.858;4.472;2023-08-08T10:50:54;19.10;99.90
23715;DHT22;12036;50.858;4.472;2023-08-08T10:53:25;19.30;99.90
23715;DHT22;12036;50.858;4.472;2023-08-08T10:55:58;19.30;99.90
23715;DHT22;12036;50.858;4.472;2023-08-08T10:58:35;19.40;99.90
23715;DHT22;12036;50.858;4.472;2023-08-08T11:01:01;19.30;99.90
23715;DHT22;12036;50.858;4.472;2023-08-08T11:03:29;19.10;99.90
23715;DHT22;12036;50.858;4.472;2023-08-08T11:05:55;19.00;99.90
23715;DHT22;12036;50.858;4.472;2023-08-08T11:08:21;18.90;99.90
23715;DHT22;12036;50.858;4.472;2023-08-08T11:10:53;18.90;99.90
23715;DHT22;12036;50.858;4.472;2023-08-08T11:13:19;18.80;99.90
23715;DHT22;12036;50.858;4.472;2023-08-08T11:15:45;18.90;99.90
23715;DHT22;12036;50.858;4.472;2023-08-08T11:18:11;18.90;99.90
23715;DHT22;12036;50.858;4.472;2023-08-08T11:20:38;18.90;99.90
23715;DHT22;12036;50.858;4.472;2023-08-08T11:23:05;19.20;99.90
23715;DHT22;12036;50.858;4.472;2023-08-08T11:25:36;19.50;99.90
23715;DHT22;12036;50.858;4.472;2023-08-08T11:28:02;20.00;99.90
23715;DHT22;12036;50.858;4.472;2023-08-08T11:30:29;20.40;99.90
23715;DHT22;12036;50.858;4.472;2023-08-08T11:32:56;20.90;99.90
23715;DHT22;12036;50.858;4.472;2023-08-08T11:35:23;20.90;99.90
23715;DHT22;12036;50.858;4.472;2023-08-08T11:37:53;21.00;99.90
23715;DHT22;12036;50.858;4.472;2023-08-08T11:40:19;20.90;99.90
23715;DHT22;12036;50.858;4.472;2023-08-08T11:42:45;20.80;99.90
23715;DHT22;12036;50.858;4.472;2023-08-08T11:45:12;20.90;99.90
23715;DHT22;12036;50.858;4.472;2023-08-08T11:47:39;21.00;99.90
23715;DHT22;12036;50.858;4.472;2023-08-08T11:50:07;20.80;97.60
23715;DHT22;12036;50.858;4.472;2023-08-08T11:52:34;20.60;97.30
23715;DHT22;12036;50.858;4.472;2023-08-08T11:55:00;20.50;97.10
23715;DHT22;12036;50.858;4.472;2023-08-08T11:57:27;20.50;97.10
23715;DHT22;12036;50.858;4.472;2023-08-08T11:59:56;20.40;97.40
23715;DHT22;12036;50.858;4.472;2023-08-08T12:02:23;20.20;98.00
23715;DHT22;12036;50.858;4.472;2023-08-08T12:04:49;20.00;98.40
23715;DHT22;12036;50.858;4.472;2023-08-08T12:07:16;20.00;98.60
23715;DHT22;12036;50.858;4.472;2023-08-08T12:09:42;20.10;99.10
23715;DHT22;12036;50.858;4.472;2023-08-08T12:12:08;20.40;99.50
23715;DHT22;12036;50.858;4.472;2023-08-08T12:14:42;20.60;99.10
23715;DHT22;12036;50.858;4.472;2023-08-08T12:17:09;20.80;98.70
23715;DHT22;12036;50.858;4.472;2023-08-08T12:19:34;20.90;98.90
23715;DHT22;12036;50.858;4.472;2023-08-08T12:22:00;21.00;98.40
23715;DHT22;12036;50.858;4.472;2023-08-08T12:24:26;21.10;98.70
23715;DHT22;12036;50.858;4.472;2023-08-08T12:26:51;21.10;98.00
23715;DHT22;12036;50.858;4.472;2023-08-08T12:29:17;21.20;97.70
23715;DHT22;12036;50.858;4.472;2023-08-08T12:31:43;21.30;97.80
23715;DHT22;12036;50.858;4.472;2023-08-08T12:34:08;21.40;97.20
23715;DHT22;12036;50.858;4.472;2023-08-08T12:36:35;21.40;97.70
23715;DHT22;12036;50.858;4.472;2023-08-08T12:39:01;21.40;97.60
23715;DHT22;12036;50.858;4.472;2023-08-08T12:41:26;21.60;97.70
23715;DHT22;12036;50.858;4.472;2023-08-08T12:43:55;21.80;97.20
23715;DHT22;12036;50.858;4.472;2023-08-08T12:46:20;21.60;96.30
23715;DHT22;12036;50.858;4.472;2023-08-08T12:48:46;21.60;96.10
23715;DHT22;12036;50.858;4.472;2023-08-08T12:51:12;21.80;96.70
23715;DHT22;12036;50.858;4.472;2023-08-08T12:53:38;21.80;96.50
23715;DHT22;12036;50.858;4.472;2023-08-08T12:56:03;21.90;96.20
23715;DHT22;12036;50.858;4.472;2023-08-08T12:58:29;21.70;95.80
23715;DHT22;12036;50.858;4.472;2023-08-08T13:00:55;21.80;96.20
23715;DHT22;12036;50.858;4.472;2023-08-08T13:03:20;21.80;96.00
23715;DHT22;12036;50.858;4.472;2023-08-08T13:05:46;21.80;96.50
23715;DHT22;12036;50.858;4.472;2023-08-08T13:08:12;21.70;96.00
23715;DHT22;12036;50.858;4.472;2023-08-08T13:10:39;21.50;95.40
23715;DHT22;12036;50.858;4.472;2023-08-08T13:13:05;21.40;96.10
23715;DHT22;12036;50.858;4.472;2023-08-08T13:15:31;21.30;96.30
23715;DHT22;12036;50.858;4.472;2023-08-08T13:17:56;21.20;96.80
23715;DHT22;12036;50.858;4.472;2023-08-08T13:20:22;21.30;97.00
23715;DHT22;12036;50.858;4.472;2023-08-08T13:22:48;21.40;97.10
23715;DHT22;12036;50.858;4.472;2023-08-08T13:25:13;21.50;96.80
23715;DHT22;12036;50.858;4.472;2023-08-08T13:27:39;21.50;96.80
23715;DHT22;12036;50.858;4.472;2023-08-08T13:30:05;21.40;96.40
23715;DHT22;12036;50.858;4.472;2023-08-08T13:32:32;21.30;96.50
23715;DHT22;12036;50.858;4.472;2023-08-08T13:34:58;21.30;96.70
23715;DHT22;12036;50.858;4.472;2023-08-08T13:37:23;21.20;96.90
23715;DHT22;12036;50.858;4.472;2023-08-08T13:39:49;21.10;97.00
23715;DHT22;12036;50.858;4.472;2023-08-08T13:42:15;21.10;97.30
23715;DHT22;12036;50.858;4.472;2023-08-08T13:44:40;21.10;97.20
23715;DHT22;12036;50.858;4.472;2023-08-08T13:47:06;21.30;97.30
23715;DHT22;12036;50.858;4.472;2023-08-08T13:49:31;21.40;96.80
23715;DHT22;12036;50.858;4.472;2023-08-08T13:51:57;21.40;96.60
23715;DHT22;12036;50.858;4.472;2023-08-08T13:54:23;21.70;97.00
23715;DHT22;12036;50.858;4.472;2023-08-08T13:56:49;22.00;96.20
23715;DHT22;12036;50.858;4.472;2023-08-08T13:59:14;22.10;96.50
23715;DHT22;12036;50.858;4.472;2023-08-08T14:01:40;22.00;95.90
23715;DHT22;12036;50.858;4.472;2023-08-08T14:04:06;22.20;95.70
23715;DHT22;12036;50.858;4.472;2023-08-08T14:06:31;22.00;95.30
23715;DHT22;12036;50.858;4.472;2023-08-08T14:08:57;22.00;96.10
23715;DHT22;12036;50.858;4.472;2023-08-08T14:11:23;22.10;96.00
23715;DHT22;12036;50.858;4.472;2023-08-08T14:13:48;22.00;95.50
23715;DHT22;12036;50.858;4.472;2023-08-08T14:16:14;22.00;95.70
23715;DHT22;12036;50.858;4.472;2023-08-08T14:18:40;21.60;95.10
23715;DHT22;12036;50.858;4.472;2023-08-08T14:21:05;21.50;95.80
23715;DHT22;12036;50.858;4.472;2023-08-08T14:23:31;21.30;96.00
23715;DHT22;12036;50.858;4.472;2023-08-08T14:25:57;21.20;95.90
23715;DHT22;12036;50.858;4.472;2023-08-08T14:28:23;20.80;96.70
23715;DHT22;12036;50.858;4.472;2023-08-08T14:30:48;20.60;97.20
23715;DHT22;12036;50.858;4.472;2023-08-08T14:33:15;20.50;97.60
23715;DHT22;12036;50.858;4.472;2023-08-08T14:35:41;20.40;97.60
23715;DHT22;12036;50.858;4.472;2023-08-08T14:38:06;20.40;97.60
23715;DHT22;12036;50.858;4.472;2023-08-08T14:40:32;20.30;97.40
23715;DHT22;12036;50.858;4.472;2023-08-08T14:43:00;20.30;97.90
23715;DHT22;12036;50.858;4.472;2023-08-08T14:45:26;20.20;98.00
23715;DHT22;12036;50.858;4.472;2023-08-08T14:47:52;20.00;98.10
23715;DHT22;12036;50.858;4.472;2023-08-08T14:50:18;19.90;98.30
23715;DHT22;12036;50.858;4.472;2023-08-08T14:52:43;19.90;98.50
23715;DHT22;12036;50.858;4.472;2023-08-08T14:55:09;19.90;98.60
23715;DHT22;12036;50.858;4.472;2023-08-08T14:57:35;19.80;98.60
23715;DHT22;12036;50.858;4.472;2023-08-08T15:00:00;19.90;99.10
23715;DHT22;12036;50.858;4.472;2023-08-08T15:02:27;19.90;99.20
23715;DHT22;12036;50.858;4.472;2023-08-08T15:04:52;20.00;99.30
23715;DHT22;12036;50.858;4.472;2023-08-08T15:07:19;20.00;99.60
23715;DHT22;12036;50.858;4.472;2023-08-08T15:09:44;20.10;99.10
23715;DHT22;12036;50.858;4.472;2023-08-08T15:12:11;20.00;99.40
23715;DHT22;12036;50.858;4.472;2023-08-08T15:14:37;19.90;99.50
23715;DHT22;12036;50.858;4.472;2023-08-08T15:17:03;19.80;99.90
23715;DHT22;12036;50.858;4.472;2023-08-08T15:19:29;19.80;99.90
23715;DHT22;12036;50.858;4.472;2023-08-08T15:21:54;19.70;99.90
23715;DHT22;12036;50.858;4.472;2023-08-08T15:24:20;19.70;99.90
23715;DHT22;12036;50.858;4.472;2023-08-08T15:26:46;19.60;99.90
23715;DHT22;12036;50.858;4.472;2023-08-08T15:29:11;19.60;99.90
23715;DHT22;12036;50.858;4.472;2023-08-08T15:31:37;19.50;99.90